sensor_id;sensor_type;location;lat;lon;timestamp;P1;durP1;ratioP1;P2;durP2;ratioP2
24161;SDS011;12318;51.262;7.066;2022-12-18T00:02:15;15.05;;;7.47;;
24161;SDS011;12318;51.262;7.066;2022-12-18T00:04:41;10.68;;;6.70;;
24161;SDS011;12318;51.262;7.066;2022-12-18T00:07:07;11.93;;;6.45;;
24161;SDS011;12318;51.262;7.066;2022-12-18T00:09:33;14.10;;;6.65;;
24161;SDS011;12318;51.262;7.066;2022-12-18T00:11:58;11.40;;;6.85;;
24161;SDS011;12318;51.262;7.066;2022-12-18T00:14:24;12.13;;;7.00;;
24161;SDS011;12318;51.262;7.066;2022-12-18T00:16:53;14.45;;;6.82;;
24161;SDS011;12318;51.262;7.066;2022-12-18T00:19:19;12.40;;;6.95;;
24161;SDS011;12318;51.262;7.066;2022-12-18T00:21:47;13.77;;;6.97;;
24161;SDS011;12318;51.262;7.066;2022-12-18T00:24:13;11.95;;;7.03;;
24161;SDS011;12318;51.262;7.066;2022-12-18T00:26:39;14.18;;;6.82;;
24161;SDS011;12318;51.262;7.066;2022-12-18T00:29:10;12.35;;;6.70;;
24161;SDS011;12318;51.262;7.066;2022-12-18T00:31:39;12.00;;;6.95;;
24161;SDS011;12318;51.262;7.066;2022-12-18T00:34:05;11.60;;;6.97;;
24161;SDS011;12318;51.262;7.066;2022-12-18T00:36:32;11.07;;;7.10;;
24161;SDS011;12318;51.262;7.066;2022-12-18T00:39:00;13.50;;;6.85;;
24161;SDS011;12318;51.262;7.066;2022-12-18T00:41:27;12.10;;;6.65;;
24161;SDS011;12318;51.262;7.066;2022-12-18T00:44:12;12.68;;;7.53;;
24161;SDS011;12318;51.262;7.066;2022-12-18T00:46:42;12.07;;;6.90;;
24161;SDS011;12318;51.262;7.066;2022-12-18T00:49:08;11.98;;;7.07;;
24161;SDS011;12318;51.262;7.066;2022-12-18T00:51:34;13.38;;;7.53;;
24161;SDS011;12318;51.262;7.066;2022-12-18T00:54:00;9.68;;;5.85;;
24161;SDS011;12318;51.262;7.066;2022-12-18T00:59:17;12.93;;;6.30;;
24161;SDS011;12318;51.262;7.066;2022-12-18T01:01:43;13.32;;;7.43;;
24161;SDS011;12318;51.262;7.066;2022-12-18T01:04:09;11.07;;;6.70;;
24161;SDS011;12318;51.262;7.066;2022-12-18T01:06:40;11.82;;;7.13;;
24161;SDS011;12318;51.262;7.066;2022-12-18T01:09:06;16.15;;;8.13;;
24161;SDS011;12318;51.262;7.066;2022-12-18T01:11:31;11.25;;;6.60;;
24161;SDS011;12318;51.262;7.066;2022-12-18T01:13:57;11.90;;;7.00;;
24161;SDS011;12318;51.262;7.066;2022-12-18T01:16:26;12.60;;;6.50;;
24161;SDS011;12318;51.262;7.066;2022-12-18T01:18:53;10.90;;;6.80;;
24161;SDS011;12318;51.262;7.066;2022-12-18T01:21:20;10.52;;;6.63;;
24161;SDS011;12318;51.262;7.066;2022-12-18T01:23:46;11.52;;;6.80;;
24161;SDS011;12318;51.262;7.066;2022-12-18T01:26:17;10.50;;;6.93;;
24161;SDS011;12318;51.262;7.066;2022-12-18T01:28:43;12.52;;;6.80;;
24161;SDS011;12318;51.262;7.066;2022-12-18T01:31:13;12.90;;;7.00;;
24161;SDS011;12318;51.262;7.066;2022-12-18T01:33:50;10.70;;;7.00;;
24161;SDS011;12318;51.262;7.066;2022-12-18T01:36:18;11.93;;;7.72;;
24161;SDS011;12318;51.262;7.066;2022-12-18T01:38:52;13.25;;;7.25;;
24161;SDS011;12318;51.262;7.066;2022-12-18T01:41:23;12.70;;;7.35;;
24161;SDS011;12318;51.262;7.066;2022-12-18T01:43:55;10.73;;;6.82;;
24161;SDS011;12318;51.262;7.066;2022-12-18T01:46:26;12.75;;;7.00;;
24161;SDS011;12318;51.262;7.066;2022-12-18T01:48:59;11.50;;;6.70;;
24161;SDS011;12318;51.262;7.066;2022-12-18T01:51:26;11.15;;;6.88;;
24161;SDS011;12318;51.262;7.066;2022-12-18T01:53:54;11.20;;;6.70;;
24161;SDS011;12318;51.262;7.066;2022-12-18T01:56:21;14.07;;;6.88;;
24161;SDS011;12318;51.262;7.066;2022-12-18T01:59:03;14.15;;;7.15;;
24161;SDS011;12318;51.262;7.066;2022-12-18T02:01:33;12.68;;;7.47;;
24161;SDS011;12318;51.262;7.066;2022-12-18T02:07:20;12.00;;;6.65;;
24161;SDS011;12318;51.262;7.066;2022-12-18T02:12:56;11.38;;;6.57;;
24161;SDS011;12318;51.262;7.066;2022-12-18T02:21:13;12.40;;;7.15;;
24161;SDS011;12318;51.262;7.066;2022-12-18T02:26:50;9.95;;;6.30;;
24161;SDS011;12318;51.262;7.066;2022-12-18T02:32:12;11.73;;;5.78;;
24161;SDS011;12318;51.262;7.066;2022-12-18T02:34:42;11.68;;;6.32;;
24161;SDS011;12318;51.262;7.066;2022-12-18T02:37:17;9.32;;;5.45;;
24161;SDS011;12318;51.262;7.066;2022-12-18T02:39:45;12.38;;;6.13;;
24161;SDS011;12318;51.262;7.066;2022-12-18T02:42:13;10.85;;;5.88;;
24161;SDS011;12318;51.262;7.066;2022-12-18T02:44:45;9.10;;;5.25;;
24161;SDS011;12318;51.262;7.066;2022-12-18T02:47:13;10.35;;;5.97;;
24161;SDS011;12318;51.262;7.066;2022-12-18T03:08:55;8.13;;;5.30;;
24161;SDS011;12318;51.262;7.066;2022-12-18T03:11:32;12.25;;;6.18;;
24161;SDS011;12318;51.262;7.066;2022-12-18T03:14:20;8.35;;;5.03;;
24161;SDS011;12318;51.262;7.066;2022-12-18T03:16:49;10.82;;;5.40;;
24161;SDS011;12318;51.262;7.066;2022-12-18T03:19:20;8.45;;;5.07;;
24161;SDS011;12318;51.262;7.066;2022-12-18T03:24:20;8.95;;;5.40;;
24161;SDS011;12318;51.262;7.066;2022-12-18T03:26:50;7.60;;;5.25;;
24161;SDS011;12318;51.262;7.066;2022-12-18T03:29:24;9.90;;;5.28;;
24161;SDS011;12318;51.262;7.066;2022-12-18T03:32:04;8.63;;;5.00;;
24161;SDS011;12318;51.262;7.066;2022-12-18T03:34:35;8.90;;;5.25;;
24161;SDS011;12318;51.262;7.066;2022-12-18T03:37:15;8.85;;;5.28;;
24161;SDS011;12318;51.262;7.066;2022-12-18T03:39:41;8.38;;;5.20;;
24161;SDS011;12318;51.262;7.066;2022-12-18T03:42:08;8.27;;;4.85;;
24161;SDS011;12318;51.262;7.066;2022-12-18T03:50:11;7.60;;;5.10;;
24161;SDS011;12318;51.262;7.066;2022-12-18T03:55:17;8.63;;;4.85;;
24161;SDS011;12318;51.262;7.066;2022-12-18T03:57:44;8.38;;;4.63;;
24161;SDS011;12318;51.262;7.066;2022-12-18T04:00:12;7.43;;;4.85;;
24161;SDS011;12318;51.262;7.066;2022-12-18T04:02:42;7.35;;;4.75;;
24161;SDS011;12318;51.262;7.066;2022-12-18T04:05:19;7.13;;;4.45;;
24161;SDS011;12318;51.262;7.066;2022-12-18T04:07:47;9.00;;;5.20;;
24161;SDS011;12318;51.262;7.066;2022-12-18T04:10:15;6.50;;;4.30;;
24161;SDS011;12318;51.262;7.066;2022-12-18T04:12:42;7.20;;;4.60;;
24161;SDS011;12318;51.262;7.066;2022-12-18T04:15:08;9.63;;;4.75;;
24161;SDS011;12318;51.262;7.066;2022-12-18T04:17:35;7.95;;;4.60;;
24161;SDS011;12318;51.262;7.066;2022-12-18T04:20:00;6.82;;;4.43;;
24161;SDS011;12318;51.262;7.066;2022-12-18T04:22:26;6.82;;;4.50;;
24161;SDS011;12318;51.262;7.066;2022-12-18T04:24:52;8.25;;;4.65;;
24161;SDS011;12318;51.262;7.066;2022-12-18T04:27:18;7.47;;;4.18;;
24161;SDS011;12318;51.262;7.066;2022-12-18T04:29:44;7.15;;;4.20;;
24161;SDS011;12318;51.262;7.066;2022-12-18T04:32:09;6.90;;;3.90;;
24161;SDS011;12318;51.262;7.066;2022-12-18T04:34:35;7.25;;;3.60;;
24161;SDS011;12318;51.262;7.066;2022-12-18T04:37:03;6.00;;;3.63;;
24161;SDS011;12318;51.262;7.066;2022-12-18T04:39:29;5.28;;;3.50;;
24161;SDS011;12318;51.262;7.066;2022-12-18T04:41:55;4.80;;;3.08;;
24161;SDS011;12318;51.262;7.066;2022-12-18T04:44:20;5.50;;;3.17;;
24161;SDS011;12318;51.262;7.066;2022-12-18T04:46:52;5.28;;;3.10;;
24161;SDS011;12318;51.262;7.066;2022-12-18T04:49:17;4.63;;;3.00;;
24161;SDS011;12318;51.262;7.066;2022-12-18T04:51:43;5.53;;;3.33;;
24161;SDS011;12318;51.262;7.066;2022-12-18T04:54:09;5.53;;;3.00;;
24161;SDS011;12318;51.262;7.066;2022-12-18T04:56:48;7.85;;;3.30;;
24161;SDS011;12318;51.262;7.066;2022-12-18T04:59:14;5.28;;;2.92;;
24161;SDS011;12318;51.262;7.066;2022-12-18T05:01:40;6.13;;;3.30;;
24161;SDS011;12318;51.262;7.066;2022-12-18T05:04:05;4.53;;;2.65;;
24161;SDS011;12318;51.262;7.066;2022-12-18T05:06:42;5.72;;;3.33;;
24161;SDS011;12318;51.262;7.066;2022-12-18T05:09:08;5.38;;;3.17;;
24161;SDS011;12318;51.262;7.066;2022-12-18T05:11:34;6.93;;;3.45;;
24161;SDS011;12318;51.262;7.066;2022-12-18T05:13:59;6.07;;;3.38;;
24161;SDS011;12318;51.262;7.066;2022-12-18T05:16:36;6.07;;;2.72;;
24161;SDS011;12318;51.262;7.066;2022-12-18T05:19:01;4.20;;;2.78;;
24161;SDS011;12318;51.262;7.066;2022-12-18T05:21:27;4.90;;;3.13;;
24161;SDS011;12318;51.262;7.066;2022-12-18T05:23:53;6.55;;;3.50;;
24161;SDS011;12318;51.262;7.066;2022-12-18T05:26:19;6.57;;;3.40;;
24161;SDS011;12318;51.262;7.066;2022-12-18T05:28:45;5.22;;;3.50;;
24161;SDS011;12318;51.262;7.066;2022-12-18T05:31:11;6.43;;;3.35;;
24161;SDS011;12318;51.262;7.066;2022-12-18T05:33:36;5.38;;;3.58;;
24161;SDS011;12318;51.262;7.066;2022-12-18T05:36:04;5.13;;;3.40;;
24161;SDS011;12318;51.262;7.066;2022-12-18T05:38:41;5.20;;;3.20;;
24161;SDS011;12318;51.262;7.066;2022-12-18T05:41:07;6.15;;;3.60;;
24161;SDS011;12318;51.262;7.066;2022-12-18T05:43:35;7.28;;;3.83;;
24161;SDS011;12318;51.262;7.066;2022-12-18T05:46:06;5.68;;;3.50;;
24161;SDS011;12318;51.262;7.066;2022-12-18T05:48:34;6.40;;;3.05;;
24161;SDS011;12318;51.262;7.066;2022-12-18T05:51:04;7.28;;;3.60;;
24161;SDS011;12318;51.262;7.066;2022-12-18T05:53:31;5.97;;;3.53;;
24161;SDS011;12318;51.262;7.066;2022-12-18T05:55:59;5.47;;;3.38;;
24161;SDS011;12318;51.262;7.066;2022-12-18T05:58:33;6.80;;;3.63;;
24161;SDS011;12318;51.262;7.066;2022-12-18T06:01:05;6.05;;;3.70;;
24161;SDS011;12318;51.262;7.066;2022-12-18T06:03:32;5.35;;;3.40;;
24161;SDS011;12318;51.262;7.066;2022-12-18T06:05:58;6.70;;;3.95;;
24161;SDS011;12318;51.262;7.066;2022-12-18T06:08:34;7.28;;;3.80;;
24161;SDS011;12318;51.262;7.066;2022-12-18T06:11:00;7.35;;;4.20;;
24161;SDS011;12318;51.262;7.066;2022-12-18T06:13:26;5.75;;;3.08;;
24161;SDS011;12318;51.262;7.066;2022-12-18T06:15:51;5.97;;;3.78;;
24161;SDS011;12318;51.262;7.066;2022-12-18T06:18:20;6.20;;;3.88;;
24161;SDS011;12318;51.262;7.066;2022-12-18T06:20:53;6.72;;;4.22;;
24161;SDS011;12318;51.262;7.066;2022-12-18T06:23:20;6.60;;;3.88;;
24161;SDS011;12318;51.262;7.066;2022-12-18T06:25:46;5.88;;;3.80;;
24161;SDS011;12318;51.262;7.066;2022-12-18T06:28:12;6.05;;;3.88;;
24161;SDS011;12318;51.262;7.066;2022-12-18T06:30:38;6.45;;;3.65;;
24161;SDS011;12318;51.262;7.066;2022-12-18T06:33:04;7.38;;;3.92;;
24161;SDS011;12318;51.262;7.066;2022-12-18T06:35:29;7.85;;;4.00;;
24161;SDS011;12318;51.262;7.066;2022-12-18T06:38:13;6.82;;;3.88;;
24161;SDS011;12318;51.262;7.066;2022-12-18T06:40:39;9.07;;;4.55;;
24161;SDS011;12318;51.262;7.066;2022-12-18T06:43:05;7.18;;;3.97;;
24161;SDS011;12318;51.262;7.066;2022-12-18T06:45:31;6.50;;;3.40;;
24161;SDS011;12318;51.262;7.066;2022-12-18T06:47:56;6.38;;;4.40;;
24161;SDS011;12318;51.262;7.066;2022-12-18T06:50:22;7.95;;;3.88;;
24161;SDS011;12318;51.262;7.066;2022-12-18T06:52:48;7.07;;;4.55;;
24161;SDS011;12318;51.262;7.066;2022-12-18T06:55:13;7.43;;;4.32;;
24161;SDS011;12318;51.262;7.066;2022-12-18T07:00:36;7.50;;;4.55;;
24161;SDS011;12318;51.262;7.066;2022-12-18T07:03:02;6.22;;;3.83;;
24161;SDS011;12318;51.262;7.066;2022-12-18T07:05:28;7.80;;;4.20;;
24161;SDS011;12318;51.262;7.066;2022-12-18T07:07:53;7.15;;;3.78;;
24161;SDS011;12318;51.262;7.066;2022-12-18T07:10:19;7.53;;;4.45;;
24161;SDS011;12318;51.262;7.066;2022-12-18T07:12:45;6.68;;;4.03;;
24161;SDS011;12318;51.262;7.066;2022-12-18T07:15:11;8.35;;;4.50;;
24161;SDS011;12318;51.262;7.066;2022-12-18T07:17:38;7.22;;;4.53;;
24161;SDS011;12318;51.262;7.066;2022-12-18T07:20:04;7.35;;;4.40;;
24161;SDS011;12318;51.262;7.066;2022-12-18T07:22:30;7.18;;;4.40;;
24161;SDS011;12318;51.262;7.066;2022-12-18T07:24:55;8.23;;;4.47;;
24161;SDS011;12318;51.262;7.066;2022-12-18T07:30:18;7.43;;;4.43;;
24161;SDS011;12318;51.262;7.066;2022-12-18T07:32:43;7.88;;;4.30;;
24161;SDS011;12318;51.262;7.066;2022-12-18T07:35:09;8.38;;;4.82;;
24161;SDS011;12318;51.262;7.066;2022-12-18T07:37:35;8.20;;;4.70;;
24161;SDS011;12318;51.262;7.066;2022-12-18T07:40:00;8.57;;;4.93;;
24161;SDS011;12318;51.262;7.066;2022-12-18T07:42:26;8.95;;;4.70;;
24161;SDS011;12318;51.262;7.066;2022-12-18T07:44:58;10.77;;;5.22;;
24161;SDS011;12318;51.262;7.066;2022-12-18T07:47:42;10.80;;;5.60;;
24161;SDS011;12318;51.262;7.066;2022-12-18T07:50:08;9.48;;;5.18;;
24161;SDS011;12318;51.262;7.066;2022-12-18T07:52:34;9.02;;;5.05;;
24161;SDS011;12318;51.262;7.066;2022-12-18T07:55:00;9.27;;;5.35;;
24161;SDS011;12318;51.262;7.066;2022-12-18T07:57:41;8.82;;;4.88;;
24161;SDS011;12318;51.262;7.066;2022-12-18T08:00:07;9.82;;;5.35;;
24161;SDS011;12318;51.262;7.066;2022-12-18T08:02:33;9.15;;;5.13;;
24161;SDS011;12318;51.262;7.066;2022-12-18T08:04:59;7.20;;;4.82;;
24161;SDS011;12318;51.262;7.066;2022-12-18T08:07:25;8.48;;;4.78;;
24161;SDS011;12318;51.262;7.066;2022-12-18T08:09:51;9.73;;;5.72;;
24161;SDS011;12318;51.262;7.066;2022-12-18T08:12:16;7.57;;;4.95;;
24161;SDS011;12318;51.262;7.066;2022-12-18T08:14:42;7.63;;;4.80;;
24161;SDS011;12318;51.262;7.066;2022-12-18T08:17:13;10.65;;;5.82;;
24161;SDS011;12318;51.262;7.066;2022-12-18T08:19:39;9.15;;;5.60;;
24161;SDS011;12318;51.262;7.066;2022-12-18T08:22:05;9.32;;;5.72;;
24161;SDS011;12318;51.262;7.066;2022-12-18T08:24:30;7.72;;;4.85;;
24161;SDS011;12318;51.262;7.066;2022-12-18T08:26:56;7.97;;;4.15;;
24161;SDS011;12318;51.262;7.066;2022-12-18T08:29:22;8.23;;;5.30;;
24161;SDS011;12318;51.262;7.066;2022-12-18T08:31:48;9.15;;;5.43;;
24161;SDS011;12318;51.262;7.066;2022-12-18T08:34:14;9.25;;;4.95;;
24161;SDS011;12318;51.262;7.066;2022-12-18T08:36:54;7.72;;;5.10;;
24161;SDS011;12318;51.262;7.066;2022-12-18T08:39:20;9.48;;;4.95;;
24161;SDS011;12318;51.262;7.066;2022-12-18T08:41:46;9.13;;;5.35;;
24161;SDS011;12318;51.262;7.066;2022-12-18T08:44:31;8.88;;;4.80;;
24161;SDS011;12318;51.262;7.066;2022-12-18T08:47:13;9.15;;;4.70;;
24161;SDS011;12318;51.262;7.066;2022-12-18T08:49:39;8.75;;;4.70;;
24161;SDS011;12318;51.262;7.066;2022-12-18T08:52:05;10.70;;;5.30;;
24161;SDS011;12318;51.262;7.066;2022-12-18T08:54:31;8.68;;;4.90;;
24161;SDS011;12318;51.262;7.066;2022-12-18T08:56:57;7.47;;;4.47;;
24161;SDS011;12318;51.262;7.066;2022-12-18T08:59:23;9.60;;;5.00;;
24161;SDS011;12318;51.262;7.066;2022-12-18T09:01:53;10.68;;;4.93;;
24161;SDS011;12318;51.262;7.066;2022-12-18T09:04:19;7.78;;;4.97;;
24161;SDS011;12318;51.262;7.066;2022-12-18T09:09:41;7.88;;;4.70;;
24161;SDS011;12318;51.262;7.066;2022-12-18T09:12:07;7.78;;;4.70;;
24161;SDS011;12318;51.262;7.066;2022-12-18T09:14:33;7.40;;;4.05;;
24161;SDS011;12318;51.262;7.066;2022-12-18T09:17:00;8.45;;;4.80;;
24161;SDS011;12318;51.262;7.066;2022-12-18T09:19:26;7.38;;;4.05;;
24161;SDS011;12318;51.262;7.066;2022-12-18T09:21:52;7.22;;;4.43;;
24161;SDS011;12318;51.262;7.066;2022-12-18T09:24:18;8.25;;;4.47;;
24161;SDS011;12318;51.262;7.066;2022-12-18T09:26:47;7.13;;;4.72;;
24161;SDS011;12318;51.262;7.066;2022-12-18T09:29:13;6.50;;;4.38;;
24161;SDS011;12318;51.262;7.066;2022-12-18T09:31:39;7.03;;;4.28;;
24161;SDS011;12318;51.262;7.066;2022-12-18T09:34:05;7.00;;;4.45;;
24161;SDS011;12318;51.262;7.066;2022-12-18T09:36:33;9.57;;;4.65;;
24161;SDS011;12318;51.262;7.066;2022-12-18T09:38:59;7.88;;;4.75;;
24161;SDS011;12318;51.262;7.066;2022-12-18T09:41:33;9.32;;;4.78;;
24161;SDS011;12318;51.262;7.066;2022-12-18T09:44:32;7.22;;;4.20;;
24161;SDS011;12318;51.262;7.066;2022-12-18T09:50:04;8.07;;;4.78;;
24161;SDS011;12318;51.262;7.066;2022-12-18T09:52:41;7.35;;;4.75;;
24161;SDS011;12318;51.262;7.066;2022-12-18T09:55:18;10.30;;;5.55;;
24161;SDS011;12318;51.262;7.066;2022-12-18T10:01:00;7.93;;;5.05;;
24161;SDS011;12318;51.262;7.066;2022-12-18T10:03:25;10.57;;;5.18;;
24161;SDS011;12318;51.262;7.066;2022-12-18T10:06:10;9.68;;;5.47;;
24161;SDS011;12318;51.262;7.066;2022-12-18T10:14:30;9.20;;;5.65;;
24161;SDS011;12318;51.262;7.066;2022-12-18T10:19:44;9.93;;;4.95;;
24161;SDS011;12318;51.262;7.066;2022-12-18T10:22:27;7.93;;;4.55;;
24161;SDS011;12318;51.262;7.066;2022-12-18T10:27:44;6.30;;;4.00;;
24161;SDS011;12318;51.262;7.066;2022-12-18T10:30:14;9.38;;;5.05;;
24161;SDS011;12318;51.262;7.066;2022-12-18T10:35:11;7.85;;;4.82;;
24161;SDS011;12318;51.262;7.066;2022-12-18T10:40:48;9.80;;;4.50;;
24161;SDS011;12318;51.262;7.066;2022-12-18T10:43:16;9.73;;;5.20;;
24161;SDS011;12318;51.262;7.066;2022-12-18T10:48:33;9.25;;;5.60;;
24161;SDS011;12318;51.262;7.066;2022-12-18T10:51:30;7.82;;;4.45;;
24161;SDS011;12318;51.262;7.066;2022-12-18T10:54:19;8.75;;;5.22;;
24161;SDS011;12318;51.262;7.066;2022-12-18T10:56:47;7.47;;;4.25;;
24161;SDS011;12318;51.262;7.066;2022-12-18T10:59:15;10.95;;;5.72;;
24161;SDS011;12318;51.262;7.066;2022-12-18T11:01:58;9.20;;;4.63;;
24161;SDS011;12318;51.262;7.066;2022-12-18T11:04:27;7.85;;;5.18;;
24161;SDS011;12318;51.262;7.066;2022-12-18T11:09:28;11.45;;;5.85;;
24161;SDS011;12318;51.262;7.066;2022-12-18T11:14:53;10.02;;;5.55;;
24161;SDS011;12318;51.262;7.066;2022-12-18T11:17:35;9.35;;;4.80;;
24161;SDS011;12318;51.262;7.066;2022-12-18T11:20:19;11.35;;;6.03;;
24161;SDS011;12318;51.262;7.066;2022-12-18T11:22:54;9.30;;;5.65;;
24161;SDS011;12318;51.262;7.066;2022-12-18T11:25:25;11.43;;;5.43;;
24161;SDS011;12318;51.262;7.066;2022-12-18T11:31:09;10.65;;;6.03;;
24161;SDS011;12318;51.262;7.066;2022-12-18T11:33:48;8.52;;;4.60;;
24161;SDS011;12318;51.262;7.066;2022-12-18T11:36:21;13.15;;;5.95;;
24161;SDS011;12318;51.262;7.066;2022-12-18T11:38:48;12.43;;;5.93;;
24161;SDS011;12318;51.262;7.066;2022-12-18T11:44:46;10.05;;;6.05;;
24161;SDS011;12318;51.262;7.066;2022-12-18T11:47:29;7.78;;;4.15;;
24161;SDS011;12318;51.262;7.066;2022-12-18T11:50:16;11.52;;;6.78;;
24161;SDS011;12318;51.262;7.066;2022-12-18T11:52:48;8.50;;;5.63;;
24161;SDS011;12318;51.262;7.066;2022-12-18T12:04:05;10.23;;;6.28;;
24161;SDS011;12318;51.262;7.066;2022-12-18T12:10:00;9.77;;;5.88;;
24161;SDS011;12318;51.262;7.066;2022-12-18T12:23:26;10.60;;;6.70;;
24161;SDS011;12318;51.262;7.066;2022-12-18T12:26:01;11.05;;;6.22;;
24161;SDS011;12318;51.262;7.066;2022-12-18T12:28:47;11.48;;;6.70;;
24161;SDS011;12318;51.262;7.066;2022-12-18T12:34:16;12.23;;;7.15;;
24161;SDS011;12318;51.262;7.066;2022-12-18T12:39:44;13.50;;;7.85;;
24161;SDS011;12318;51.262;7.066;2022-12-18T12:42:55;11.85;;;7.28;;
24161;SDS011;12318;51.262;7.066;2022-12-18T12:45:34;12.85;;;7.32;;
24161;SDS011;12318;51.262;7.066;2022-12-18T12:48:05;9.05;;;4.65;;
24161;SDS011;12318;51.262;7.066;2022-12-18T12:50:39;12.40;;;7.57;;
24161;SDS011;12318;51.262;7.066;2022-12-18T12:53:07;11.88;;;7.93;;
24161;SDS011;12318;51.262;7.066;2022-12-18T12:55:36;15.73;;;8.10;;
24161;SDS011;12318;51.262;7.066;2022-12-18T13:06:22;13.10;;;8.02;;
24161;SDS011;12318;51.262;7.066;2022-12-18T13:08:56;12.55;;;7.75;;
24161;SDS011;12318;51.262;7.066;2022-12-18T13:11:39;16.55;;;9.10;;
24161;SDS011;12318;51.262;7.066;2022-12-18T13:14:30;15.38;;;8.45;;
24161;SDS011;12318;51.262;7.066;2022-12-18T13:17:22;15.52;;;8.52;;
24161;SDS011;12318;51.262;7.066;2022-12-18T13:20:07;14.80;;;8.38;;
24161;SDS011;12318;51.262;7.066;2022-12-18T13:25:27;14.07;;;8.93;;
24161;SDS011;12318;51.262;7.066;2022-12-18T13:28:01;18.23;;;9.98;;
24161;SDS011;12318;51.262;7.066;2022-12-18T13:41:04;17.70;;;10.23;;
24161;SDS011;12318;51.262;7.066;2022-12-18T13:43:52;16.63;;;10.32;;
24161;SDS011;12318;51.262;7.066;2022-12-18T13:46:33;16.92;;;10.43;;
24161;SDS011;12318;51.262;7.066;2022-12-18T13:55:02;16.42;;;10.65;;
24161;SDS011;12318;51.262;7.066;2022-12-18T13:57:35;16.40;;;10.43;;
24161;SDS011;12318;51.262;7.066;2022-12-18T14:00:19;22.58;;;10.68;;
24161;SDS011;12318;51.262;7.066;2022-12-18T14:02:51;27.08;;;14.27;;
24161;SDS011;12318;51.262;7.066;2022-12-18T14:05:29;17.02;;;8.90;;
24161;SDS011;12318;51.262;7.066;2022-12-18T14:08:01;18.33;;;9.32;;
24161;SDS011;12318;51.262;7.066;2022-12-18T14:10:32;22.13;;;12.02;;
24161;SDS011;12318;51.262;7.066;2022-12-18T14:12:58;18.45;;;11.18;;
24161;SDS011;12318;51.262;7.066;2022-12-18T14:15:32;19.45;;;11.57;;
24161;SDS011;12318;51.262;7.066;2022-12-18T14:20:41;20.75;;;11.55;;
24161;SDS011;12318;51.262;7.066;2022-12-18T14:23:31;21.55;;;11.85;;
24161;SDS011;12318;51.262;7.066;2022-12-18T14:26:02;20.75;;;10.02;;
24161;SDS011;12318;51.262;7.066;2022-12-18T14:28:44;20.70;;;11.32;;
24161;SDS011;12318;51.262;7.066;2022-12-18T14:31:19;18.30;;;11.77;;
24161;SDS011;12318;51.262;7.066;2022-12-18T14:33:46;21.08;;;12.18;;
24161;SDS011;12318;51.262;7.066;2022-12-18T14:36:14;20.20;;;11.65;;
24161;SDS011;12318;51.262;7.066;2022-12-18T14:38:43;22.02;;;13.07;;
24161;SDS011;12318;51.262;7.066;2022-12-18T14:41:14;23.17;;;11.27;;
24161;SDS011;12318;51.262;7.066;2022-12-18T14:43:42;24.52;;;12.82;;
24161;SDS011;12318;51.262;7.066;2022-12-18T14:48:55;25.40;;;13.07;;
24161;SDS011;12318;51.262;7.066;2022-12-18T14:51:24;21.88;;;13.70;;
24161;SDS011;12318;51.262;7.066;2022-12-18T14:54:00;23.35;;;13.68;;
24161;SDS011;12318;51.262;7.066;2022-12-18T14:56:35;22.95;;;12.80;;
24161;SDS011;12318;51.262;7.066;2022-12-18T14:59:03;21.35;;;10.85;;
24161;SDS011;12318;51.262;7.066;2022-12-18T15:01:46;24.90;;;14.27;;
24161;SDS011;12318;51.262;7.066;2022-12-18T15:04:28;25.92;;;14.15;;
24161;SDS011;12318;51.262;7.066;2022-12-18T15:07:26;25.40;;;15.15;;
24161;SDS011;12318;51.262;7.066;2022-12-18T15:10:04;23.80;;;14.05;;
24161;SDS011;12318;51.262;7.066;2022-12-18T15:12:42;18.42;;;10.80;;
24161;SDS011;12318;51.262;7.066;2022-12-18T15:18:01;22.40;;;11.37;;
24161;SDS011;12318;51.262;7.066;2022-12-18T15:21:15;23.58;;;13.98;;
24161;SDS011;12318;51.262;7.066;2022-12-18T15:23:47;29.73;;;15.40;;
24161;SDS011;12318;51.262;7.066;2022-12-18T15:26:16;26.88;;;14.70;;
24161;SDS011;12318;51.262;7.066;2022-12-18T15:28:46;27.08;;;16.02;;
24161;SDS011;12318;51.262;7.066;2022-12-18T15:34:00;25.60;;;12.63;;
24161;SDS011;12318;51.262;7.066;2022-12-18T15:36:34;27.20;;;16.13;;
24161;SDS011;12318;51.262;7.066;2022-12-18T15:39:02;24.13;;;15.25;;
24161;SDS011;12318;51.262;7.066;2022-12-18T15:41:28;24.80;;;15.43;;
24161;SDS011;12318;51.262;7.066;2022-12-18T15:43:58;29.13;;;15.77;;
24161;SDS011;12318;51.262;7.066;2022-12-18T15:46:24;31.50;;;12.82;;
24161;SDS011;12318;51.262;7.066;2022-12-18T15:48:52;24.27;;;11.82;;
24161;SDS011;12318;51.262;7.066;2022-12-18T15:51:24;28.60;;;16.90;;
24161;SDS011;12318;51.262;7.066;2022-12-18T15:53:58;26.27;;;16.30;;
24161;SDS011;12318;51.262;7.066;2022-12-18T15:56:26;28.58;;;16.40;;
24161;SDS011;12318;51.262;7.066;2022-12-18T15:59:14;26.88;;;16.30;;
24161;SDS011;12318;51.262;7.066;2022-12-18T16:01:45;28.15;;;16.80;;
24161;SDS011;12318;51.262;7.066;2022-12-18T16:04:17;25.45;;;15.85;;
24161;SDS011;12318;51.262;7.066;2022-12-18T16:06:45;30.30;;;13.77;;
24161;SDS011;12318;51.262;7.066;2022-12-18T16:09:11;30.13;;;14.77;;
24161;SDS011;12318;51.262;7.066;2022-12-18T16:11:44;27.45;;;17.50;;
24161;SDS011;12318;51.262;7.066;2022-12-18T16:14:16;27.95;;;16.17;;
24161;SDS011;12318;51.262;7.066;2022-12-18T16:16:47;28.48;;;15.00;;
24161;SDS011;12318;51.262;7.066;2022-12-18T16:21:43;30.58;;;17.58;;
24161;SDS011;12318;51.262;7.066;2022-12-18T16:26:41;30.65;;;18.02;;
24161;SDS011;12318;51.262;7.066;2022-12-18T16:29:07;32.65;;;19.02;;
24161;SDS011;12318;51.262;7.066;2022-12-18T16:31:34;28.77;;;17.98;;
24161;SDS011;12318;51.262;7.066;2022-12-18T16:37:03;33.42;;;19.25;;
24161;SDS011;12318;51.262;7.066;2022-12-18T16:39:31;34.10;;;19.38;;
24161;SDS011;12318;51.262;7.066;2022-12-18T16:42:01;30.92;;;17.30;;
24161;SDS011;12318;51.262;7.066;2022-12-18T16:44:28;31.70;;;19.77;;
24161;SDS011;12318;51.262;7.066;2022-12-18T16:46:53;31.52;;;19.58;;
24161;SDS011;12318;51.262;7.066;2022-12-18T16:49:20;32.35;;;18.85;;
24161;SDS011;12318;51.262;7.066;2022-12-18T16:51:46;30.95;;;19.40;;
24161;SDS011;12318;51.262;7.066;2022-12-18T16:54:12;33.85;;;20.15;;
24161;SDS011;12318;51.262;7.066;2022-12-18T16:56:38;31.40;;;14.93;;
24161;SDS011;12318;51.262;7.066;2022-12-18T16:59:06;27.35;;;15.32;;
24161;SDS011;12318;51.262;7.066;2022-12-18T17:01:35;33.60;;;20.55;;
24161;SDS011;12318;51.262;7.066;2022-12-18T17:04:05;33.45;;;19.10;;
24161;SDS011;12318;51.262;7.066;2022-12-18T17:06:34;33.65;;;20.50;;
24161;SDS011;12318;51.262;7.066;2022-12-18T17:09:09;34.13;;;20.77;;
24161;SDS011;12318;51.262;7.066;2022-12-18T17:11:40;35.50;;;21.02;;
24161;SDS011;12318;51.262;7.066;2022-12-18T17:14:08;38.53;;;21.20;;
24161;SDS011;12318;51.262;7.066;2022-12-18T17:16:38;34.47;;;21.13;;
24161;SDS011;12318;51.262;7.066;2022-12-18T17:19:07;36.20;;;21.98;;
24161;SDS011;12318;51.262;7.066;2022-12-18T17:21:32;38.13;;;20.13;;
24161;SDS011;12318;51.262;7.066;2022-12-18T17:23:59;36.10;;;22.35;;
24161;SDS011;12318;51.262;7.066;2022-12-18T17:26:26;37.95;;;20.00;;
24161;SDS011;12318;51.262;7.066;2022-12-18T17:28:56;35.50;;;21.85;;
24161;SDS011;12318;51.262;7.066;2022-12-18T17:31:23;40.60;;;22.23;;
24161;SDS011;12318;51.262;7.066;2022-12-18T17:33:51;39.78;;;22.10;;
24161;SDS011;12318;51.262;7.066;2022-12-18T17:36:18;36.28;;;21.27;;
24161;SDS011;12318;51.262;7.066;2022-12-18T17:38:49;38.42;;;22.88;;
24161;SDS011;12318;51.262;7.066;2022-12-18T17:41:22;36.65;;;22.10;;
24161;SDS011;12318;51.262;7.066;2022-12-18T17:43:50;37.28;;;22.35;;
24161;SDS011;12318;51.262;7.066;2022-12-18T17:46:20;46.72;;;22.13;;
24161;SDS011;12318;51.262;7.066;2022-12-18T17:51:51;38.60;;;22.23;;
24161;SDS011;12318;51.262;7.066;2022-12-18T17:54:20;40.20;;;22.85;;